Time;durP1;ratioP1;P1;durP2;ratioP2;P2;SDS_P1;SDS_P2;PMS_P1;PMS_P2;Temp;Humidity;BMP_temperature;BMP_pressure;BME280_temperature;BME280_humidity;BME280_pressure;Samples;Min_cycle;Max_cycle;Signal;HPM_P1;HPM_P2
2021/11/03 00:01:03;;;;;;;37.95;25.25;;;;;;;5.26;80.81;94460.44;5113637;28;20032;-76
2021/11/03 00:03:29;;;;;;;38.88;25.77;;;;;;;5.27;81.01;94439.75;5096558;28;20036;-76
2021/11/03 00:05:54;;;;;;;38.53;24.98;;;;;;;5.08;80.85;94444.50;5095983;28;20459;-76
2021/11/03 00:08:21;;;;;;;38.33;26.85;;;;;;;5.17;80.64;94456.75;5096150;28;20378;-76
2021/11/03 00:10:49;;;;;;;38.15;23.73;;;;;;;5.11;80.71;94449.44;5079412;28;20108;-76
2021/11/03 00:13:15;;;;;;;38.22;23.35;;;;;;;5.10;80.67;94432.34;5096223;28;20034;-76
2021/11/03 00:15:40;;;;;;;34.03;20.90;;;;;;;5.12;80.38;94438.19;5095919;28;20027;-76
2021/11/03 00:18:06;;;;;;;31.60;19.98;;;;;;;5.18;80.31;94455.81;5096069;28;20431;-76
2021/11/03 00:20:32;;;;;;;30.00;20.73;;;;;;;5.19;80.36;94472.94;5095996;28;20028;-76
2021/11/03 00:22:57;;;;;;;34.38;21.67;;;;;;;4.99;78.95;94458.00;5112787;28;20107;-76
2021/11/03 00:25:24;;;;;;;32.22;20.45;;;;;;;5.02;79.40;94478.38;5095710;28;20126;-76
2021/11/03 00:27:49;;;;;;;33.17;21.42;;;;;;;5.01;79.78;94474.97;5095925;28;20027;-76
2021/11/03 00:30:15;;;;;;;31.60;21.67;;;;;;;4.97;79.63;94480.44;5095909;28;20031;-76
2021/11/03 00:32:40;;;;;;;31.00;20.00;;;;;;;5.02;79.89;94468.09;5112395;28;20028;-76
2021/11/03 00:35:06;;;;;;;32.75;20.05;;;;;;;5.03;80.93;94480.03;5112630;28;20040;-76
2021/11/03 00:37:31;;;;;;;41.55;25.33;;;;;;;5.02;80.47;94492.06;5095774;28;20407;-76
2021/11/03 00:39:57;;;;;;;37.90;24.90;;;;;;;4.96;79.92;94496.78;5112511;28;20031;-76
2021/11/03 00:42:22;;;;;;;36.90;26.52;;;;;;;4.94;80.04;94489.19;5112359;28;20030;-76
2021/11/03 00:44:47;;;;;;;33.35;23.30;;;;;;;4.96;79.89;94501.94;5114249;28;20503;-76
2021/11/03 00:47:13;;;;;;;35.97;22.92;;;;;;;4.95;80.92;94495.16;5112305;28;20493;-76
2021/11/03 00:49:38;;;;;;;31.45;20.83;;;;;;;4.89;81.32;94507.50;5112675;28;20031;-76
2021/11/03 00:52:04;;;;;;;27.38;18.50;;;;;;;4.79;81.13;94455.00;5095151;28;20314;-76
2021/11/03 00:54:29;;;;;;;29.38;17.70;;;;;;;4.93;81.58;94514.09;5112534;28;20024;-76
2021/11/03 00:56:55;;;;;;;27.70;17.35;;;;;;;4.94;81.25;94494.34;5095085;28;20043;-76
2021/11/03 00:59:20;;;;;;;27.75;18.35;;;;;;;4.98;81.38;94500.09;5078446;28;20494;-76
2021/11/03 01:01:46;;;;;;;25.73;17.58;;;;;;;5.01;81.31;94507.59;5077966;28;20031;-76
2021/11/03 01:04:12;;;;;;;27.60;17.35;;;;;;;4.91;80.96;94485.06;5112249;28;20024;-76
2021/11/03 01:06:38;;;;;;;25.52;16.40;;;;;;;4.97;80.62;94488.16;5095086;28;20035;-76
2021/11/03 01:09:03;;;;;;;24.15;17.50;;;;;;;4.91;80.26;94500.50;5095351;28;20504;-76
2021/11/03 01:11:29;;;;;;;27.48;19.05;;;;;;;4.87;80.27;94505.94;5077759;28;20472;-76
2021/11/03 01:13:54;;;;;;;24.58;16.45;;;;;;;4.85;79.99;94518.94;5112031;28;20059;-76
2021/11/03 01:16:20;;;;;;;23.52;15.80;;;;;;;4.86;80.13;94494.00;5111720;28;20036;-76
2021/11/03 01:18:45;;;;;;;24.20;15.80;;;;;;;4.86;80.08;94506.88;5077982;28;20530;-76
2021/11/03 01:21:11;;;;;;;23.10;16.60;;;;;;;4.84;80.05;94503.56;5077512;28;20035;-76
2021/11/03 01:23:36;;;;;;;24.00;15.85;;;;;;;4.76;79.46;94516.09;5094719;28;20019;-76
2021/11/03 01:26:02;;;;;;;23.08;14.77;;;;;;;4.64;79.16;94508.25;5094779;28;20039;-76
2021/11/03 01:28:27;;;;;;;30.63;19.65;;;;;;;4.66;78.94;94521.03;5111684;28;20432;-76
2021/11/03 01:30:53;;;;;;;30.52;18.42;;;;;;;4.60;79.41;94516.28;5111392;28;20032;-76
2021/11/03 01:33:19;;;;;;;31.10;18.90;;;;;;;4.58;79.25;94529.25;5077791;28;20027;-76
2021/11/03 01:35:44;;;;;;;31.70;18.88;;;;;;;4.48;78.42;94530.75;5094560;28;20169;-76
2021/11/03 01:38:10;;;;;;;33.72;21.25;;;;;;;4.38;79.14;94537.41;5077307;28;20142;-77
2021/11/03 01:40:39;;;;;;;31.40;18.45;;;;;;;4.40;79.48;94551.81;5094177;28;20074;-76
2021/11/03 01:43:04;;;;;;;34.05;20.15;;;;;;;4.39;79.80;94545.00;5111373;28;20142;-76
2021/11/03 01:45:30;;;;;;;86.85;18.55;;;;;;;4.25;80.49;94511.63;5094514;28;20489;-76
2021/11/03 01:48:00;;;;;;;21.23;14.02;;;;;;;4.32;80.50;94566.91;5094257;28;20073;-77
2021/11/03 01:50:41;;;;;;;47.75;22.85;;;;;;;4.27;80.99;94555.25;5094441;28;20046;-76
2021/11/03 01:53:08;;;;;;;37.78;23.85;;;;;;;4.25;81.09;94552.75;5094015;28;20034;-76
2021/11/03 01:55:33;;;;;;;24.15;16.30;;;;;;;4.19;81.06;94559.09;5094039;28;20519;-76
2021/11/03 01:58:19;;;;;;;39.13;23.90;;;;;;;4.21;80.99;94565.00;5094011;28;20019;-76
2021/11/03 02:00:45;;;;;;;30.40;17.30;;;;;;;4.20;80.95;94565.06;5094350;28;20449;-76
2021/11/03 02:03:13;;;;;;;24.77;16.35;;;;;;;4.16;81.03;94564.44;5112020;28;20032;-76
2021/11/03 02:05:41;;;;;;;21.35;14.18;;;;;;;4.24;81.07;94575.09;5094113;28;20043;-76
2021/11/03 02:08:07;;;;;;;27.13;12.15;;;;;;;4.33;81.32;94565.97;5077021;28;20027;-76
2021/11/03 02:10:32;;;;;;;15.95;10.90;;;;;;;4.31;80.82;94582.41;5077129;28;20412;-76
2021/11/03 02:12:58;;;;;;;20.48;14.52;;;;;;;4.26;81.28;94567.25;5110017;28;20024;-76
2021/11/03 02:15:23;;;;;;;19.88;13.45;;;;;;;4.24;81.51;94574.25;5076762;28;20043;-76
2021/11/03 02:17:48;;;;;;;54.05;18.52;;;;;;;4.25;82.29;94573.34;5093821;28;20023;-76
2021/11/03 02:20:18;;;;;;;24.98;15.65;;;;;;;4.30;81.96;94594.44;5093785;28;20036;-75
2021/11/03 02:23:33;;;;;;;27.63;17.30;;;;;;;4.22;82.29;94568.38;5076990;28;20027;-76
2021/11/03 02:26:07;;;;;;;27.38;18.50;;;;;;;4.34;82.12;94608.75;5092523;28;20623;-76
2021/11/03 02:28:33;;;;;;;31.38;20.15;;;;;;;4.36;81.88;94596.63;5092696;28;20023;-76
2021/11/03 02:30:58;;;;;;;25.38;18.17;;;;;;;4.32;81.90;94594.34;5099997;28;20105;-76
2021/11/03 02:33:24;;;;;;;32.35;18.35;;;;;;;4.39;81.45;94604.16;5093768;28;20024;-76
2021/11/03 02:35:58;;;;;;;22.02;15.38;;;;;;;4.37;81.62;94613.72;5093349;28;20435;-76
2021/11/03 02:38:38;;;;;;;42.97;15.90;;;;;;;4.36;81.49;94617.22;5093778;28;20413;-76
2021/11/03 02:41:24;;;;;;;24.63;15.88;;;;;;;4.34;81.66;94613.91;5094352;28;20028;-76
2021/11/03 02:44:05;;;;;;;26.50;16.45;;;;;;;4.31;81.37;94608.13;5112002;28;20294;-76
2021/11/03 02:46:30;;;;;;;21.98;14.40;;;;;;;4.15;81.24;94588.50;5093992;28;20421;-76
2021/11/03 02:48:56;;;;;;;19.30;13.85;;;;;;;4.35;81.29;94622.47;5093525;28;20028;-75
2021/11/03 02:51:30;;;;;;;19.77;13.65;;;;;;;4.22;81.43;94594.09;5111708;28;20036;-76
2021/11/03 02:53:57;;;;;;;16.83;12.18;;;;;;;4.22;81.21;94597.50;5110622;28;20027;-75
2021/11/03 02:56:27;;;;;;;19.23;13.13;;;;;;;4.13;81.58;94598.06;5093428;28;20071;-75
2021/11/03 02:58:53;;;;;;;15.55;10.95;;;;;;;4.10;81.42;94598.25;5093357;28;20028;-76
2021/11/03 03:01:43;;;;;;;22.05;14.45;;;;;;;4.12;81.21;94608.44;5111578;28;20032;-76
2021/11/03 03:04:39;;;;;;;27.88;18.77;;;;;;;3.98;81.32;94620.38;5110197;28;20036;-75
2021/11/03 03:07:05;;;;;;;18.77;13.57;;;;;;;3.89;80.99;94620.91;5097295;28;20463;-76
2021/11/03 03:09:30;;;;;;;24.27;17.10;;;;;;;3.90;81.44;94625.16;5076770;28;20057;-76
2021/11/03 03:11:58;;;;;;;25.60;16.55;;;;;;;3.88;81.32;94616.72;5076415;28;20053;-76
2021/11/03 03:14:25;;;;;;;29.90;19.52;;;;;;;3.99;81.19;94640.03;5093812;28;20031;-76
2021/11/03 03:16:51;;;;;;;27.20;18.73;;;;;;;4.03;81.60;94628.63;5092913;28;20031;-75
2021/11/03 03:19:16;;;;;;;29.08;19.55;;;;;;;4.06;81.01;94629.38;5110103;28;20093;-76
2021/11/03 03:21:42;;;;;;;28.10;19.35;;;;;;;3.94;80.75;94624.03;5110238;28;20023;-76
2021/11/03 03:24:08;;;;;;;22.60;15.45;;;;;;;3.89;80.15;94627.81;5112865;28;20473;-76
2021/11/03 03:26:33;;;;;;;19.40;13.55;;;;;;;3.91;80.19;94636.25;5113764;28;20035;-76
2021/11/03 03:28:59;;;;;;;24.45;16.98;;;;;;;3.85;80.18;94632.31;5114091;28;20031;-76
2021/11/03 03:31:25;;;;;;;24.88;16.10;;;;;;;3.85;80.36;94627.16;5113998;28;20023;-76
2021/11/03 03:33:51;;;;;;;27.33;18.55;;;;;;;3.86;80.30;94628.81;5097011;28;20036;-76
2021/11/03 03:36:17;;;;;;;23.63;16.65;;;;;;;3.85;80.30;94634.06;5096587;28;20043;-76
2021/11/03 03:38:43;;;;;;;23.85;15.43;;;;;;;3.90;80.77;94637.16;5114168;28;20028;-76
2021/11/03 03:41:08;;;;;;;23.38;15.75;;;;;;;3.74;80.83;94624.41;5097078;28;20031;-75
2021/11/03 03:43:34;;;;;;;24.35;15.50;;;;;;;3.56;80.25;94606.56;5114099;28;20024;-75
2021/11/03 03:45:59;;;;;;;18.98;13.05;;;;;;;3.74;80.34;94653.50;5096446;28;20030;-75
2021/11/03 03:48:24;;;;;;;20.55;15.02;;;;;;;3.72;80.81;94651.94;5113687;28;20023;-75
2021/11/03 03:50:50;;;;;;;34.55;16.52;;;;;;;3.70;80.33;94639.16;5113490;28;20016;-75
2021/11/03 03:53:16;;;;;;;23.83;15.88;;;;;;;3.69;80.46;94645.22;5113626;28;20035;-76
2021/11/03 03:55:41;;;;;;;20.52;15.07;;;;;;;3.70;80.66;94661.47;5113187;28;20520;-76
2021/11/03 03:58:07;;;;;;;29.63;15.57;;;;;;;3.63;80.44;94647.34;5096231;28;20155;-76
2021/11/03 04:00:32;;;;;;;20.20;13.55;;;;;;;3.67;80.18;94659.06;5096080;28;20020;-76
2021/11/03 04:02:58;;;;;;;18.05;12.23;;;;;;;3.65;80.69;94655.75;5113024;28;20039;-75
2021/11/03 04:05:23;;;;;;;16.50;12.65;;;;;;;3.57;80.41;94654.47;5096004;28;20031;-76
2021/11/03 04:07:49;;;;;;;17.30;13.80;;;;;;;3.70;80.63;94667.41;5079146;28;20507;-76
2021/11/03 04:10:15;;;;;;;23.25;16.00;;;;;;;3.70;80.90;94672.56;5113120;28;20035;-76
2021/11/03 04:12:40;;;;;;;32.70;18.30;;;;;;;3.69;80.01;94683.75;5095658;28;20501;-76
2021/11/03 04:15:06;;;;;;;30.33;19.33;;;;;;;3.60;79.70;94675.78;5096093;28;20485;-76
2021/11/03 04:17:32;;;;;;;25.08;16.23;;;;;;;3.48;80.00;94682.41;5096028;28;20038;-76
2021/11/03 04:19:57;;;;;;;27.38;16.98;;;;;;;3.38;80.16;94668.47;5114266;28;20481;-76
2021/11/03 04:22:23;;;;;;;24.95;16.88;;;;;;;3.42;79.71;94688.72;5112782;28;20020;-75
2021/11/03 04:24:48;;;;;;;27.15;18.95;;;;;;;3.40;80.02;94690.59;5095928;28;20058;-76
2021/11/03 04:27:14;;;;;;;31.50;21.48;;;;;;;3.46;80.32;94691.97;5112872;28;20032;-76
2021/11/03 04:29:39;;;;;;;33.85;23.60;;;;;;;3.51;80.49;94692.50;5112977;28;20055;-76
2021/11/03 04:32:05;;;;;;;32.17;21.25;;;;;;;3.53;80.43;94683.81;5112454;28;20026;-76
2021/11/03 04:34:30;;;;;;;31.58;18.40;;;;;;;3.55;80.48;94691.44;5078350;28;20063;-76
2021/11/03 04:36:56;;;;;;;33.22;20.55;;;;;;;3.49;80.41;94684.09;5095571;28;20065;-75
2021/11/03 04:39:21;;;;;;;29.23;20.08;;;;;;;3.49;80.57;94689.22;5112890;28;20097;-76
2021/11/03 04:41:47;;;;;;;23.20;16.20;;;;;;;3.48;80.18;94693.53;5095261;28;20036;-75
2021/11/03 04:44:12;;;;;;;24.92;17.52;;;;;;;3.39;80.26;94685.53;5095704;28;20038;-75
2021/11/03 04:46:38;;;;;;;26.77;18.27;;;;;;;3.38;80.45;94694.97;5112396;28;20046;-76
2021/11/03 04:49:04;;;;;;;27.67;19.20;;;;;;;3.41;80.67;94699.09;5078722;28;20034;-76
2021/11/03 04:51:29;;;;;;;25.45;18.83;;;;;;;3.40;80.16;94698.28;5112132;28;20070;-75
2021/11/03 04:53:55;;;;;;;25.95;18.60;;;;;;;3.31;80.70;94679.06;5095669;28;20038;-76
2021/11/03 04:56:21;;;;;;;28.27;19.90;;;;;;;3.48;80.32;94703.81;5095337;28;20038;-77
2021/11/03 04:58:48;;;;;;;20.85;14.52;;;;;;;3.40;80.85;94693.16;5112332;28;20501;-77
2021/11/03 05:01:14;;;;;;;25.88;17.88;;;;;;;3.35;80.63;94690.84;5095275;28;20050;-76
2021/11/03 05:03:39;;;;;;;22.92;16.70;;;;;;;3.35;80.60;94685.69;5095330;28;20478;-76
2021/11/03 05:06:05;;;;;;;22.08;15.13;;;;;;;3.43;80.48;94702.44;5112177;28;20658;-77
2021/11/03 05:08:31;;;;;;;20.25;15.23;;;;;;;3.36;80.17;94699.34;5078523;28;20034;-76
2021/11/03 05:10:56;;;;;;;22.00;15.57;;;;;;;3.27;79.85;94707.59;5094881;28;20417;-76
2021/11/03 05:13:23;;;;;;;20.70;15.38;;;;;;;3.24;80.05;94723.16;5094840;28;20454;-76
2021/11/03 05:15:49;;;;;;;21.05;15.70;;;;;;;3.20;80.13;94716.53;5095136;28;20035;-76
2021/11/03 05:18:15;;;;;;;25.77;17.75;;;;;;;3.11;80.41;94726.38;5111834;28;20039;-77
2021/11/03 05:20:40;;;;;;;29.08;17.88;;;;;;;3.04;80.16;94717.38;5094837;28;20031;-77
2021/11/03 05:23:06;;;;;;;27.27;17.58;;;;;;;3.07;80.44;94724.91;5094757;28;20032;-77
2021/11/03 05:25:31;;;;;;;28.55;18.95;;;;;;;2.84;81.00;94692.81;5113083;28;20390;-77
2021/11/03 05:27:57;;;;;;;29.92;19.42;;;;;;;2.99;81.19;94729.63;5111566;28;20028;-77
2021/11/03 05:30:24;;;;;;;29.90;19.63;;;;;;;3.05;81.28;94733.63;5077625;28;20067;-77
2021/11/03 05:32:49;;;;;;;40.90;19.98;;;;;;;2.98;81.11;94720.31;5094732;28;20024;-76
2021/11/03 05:35:15;;;;;;;25.55;17.48;;;;;;;3.11;80.60;94730.69;5094416;28;20071;-76
2021/11/03 05:37:40;;;;;;;28.67;18.70;;;;;;;3.06;80.82;94725.81;5077815;28;20031;-77
2021/11/03 05:40:08;;;;;;;35.15;18.30;;;;;;;3.00;81.63;94738.16;5111220;28;20032;-77
2021/11/03 05:42:33;;;;;;;40.22;17.48;;;;;;;2.94;81.50;94741.06;5094549;28;20024;-77
2021/11/03 05:44:59;;;;;;;28.13;14.88;;;;;;;2.91;81.54;94750.56;5111317;28;20036;-77
2021/11/03 05:47:26;;;;;;;18.38;13.00;;;;;;;2.87;80.77;94750.81;5093503;28;20080;-77
2021/11/03 05:49:51;;;;;;;19.35;13.90;;;;;;;2.96;80.86;94765.75;5077085;28;20409;-77
2021/11/03 05:52:17;;;;;;;18.40;13.10;;;;;;;2.93;80.63;94754.81;5111313;28;20027;-76
2021/11/03 05:54:42;;;;;;;18.95;13.50;;;;;;;3.02;80.86;94770.53;5111534;28;20032;-77
2021/11/03 05:57:08;;;;;;;19.85;13.95;;;;;;;2.90;81.41;94756.63;5111178;28;20032;-77
2021/11/03 05:59:35;;;;;;;22.70;13.40;;;;;;;2.97;81.14;94776.81;5094073;28;20081;-76
2021/11/03 06:02:00;;;;;;;20.35;14.00;;;;;;;2.99;81.63;94772.44;5111104;28;20102;-76
2021/11/03 06:04:26;;;;;;;21.17;12.93;;;;;;;3.07;81.98;94781.38;5077378;28;20039;-76
2021/11/03 06:06:51;;;;;;;15.98;10.65;;;;;;;3.14;82.07;94780.13;5076812;28;20027;-77
2021/11/03 06:09:17;;;;;;;20.80;13.50;;;;;;;3.18;82.26;94762.84;5110931;28;20036;-77
2021/11/03 06:11:43;;;;;;;18.55;12.90;;;;;;;3.31;82.41;94760.41;5077040;28;20467;-76
2021/11/03 06:14:09;;;;;;;20.83;14.13;;;;;;;3.45;81.89;94768.16;5094259;28;20035;-77
2021/11/03 06:16:34;;;;;;;20.33;13.48;;;;;;;3.58;82.06;94774.28;5093725;28;20394;-77
2021/11/03 06:19:00;;;;;;;24.98;15.57;;;;;;;3.67;82.34;94769.53;5077078;28;20039;-77
2021/11/03 06:21:25;;;;;;;19.50;12.50;;;;;;;3.79;82.13;94763.72;5093937;28;20425;-75
2021/11/03 06:23:51;;;;;;;22.88;15.25;;;;;;;3.94;82.14;94769.72;5076887;28;20039;-76
2021/11/03 06:26:18;;;;;;;29.10;17.88;;;;;;;4.03;81.89;94782.88;5110464;28;20114;-76
2021/11/03 06:28:44;;;;;;;33.83;21.27;;;;;;;4.13;82.06;94784.94;5094066;28;20031;-76
2021/11/03 06:31:09;;;;;;;46.70;28.02;;;;;;;4.18;81.79;94796.59;5076833;28;20550;-76
2021/11/03 06:33:35;;;;;;;44.40;26.02;;;;;;;4.26;82.08;94803.84;5093856;28;20040;-75
2021/11/03 06:36:02;;;;;;;43.97;26.70;;;;;;;4.30;81.95;94812.22;5093232;28;20050;-76
2021/11/03 06:38:28;;;;;;;45.08;27.58;;;;;;;4.25;81.96;94787.59;5093753;28;20044;-76
2021/11/03 06:40:54;;;;;;;42.92;26.48;;;;;;;4.39;81.70;94799.66;5093560;28;20028;-76
2021/11/03 06:43:20;;;;;;;41.65;26.20;;;;;;;4.43;81.45;94792.56;5110578;28;20188;-76
2021/11/03 06:45:45;;;;;;;38.22;23.45;;;;;;;4.52;81.27;94811.81;5093456;28;20501;-76
2021/11/03 06:48:11;;;;;;;30.50;18.45;;;;;;;4.57;81.43;94814.91;5111001;28;20039;-76
2021/11/03 06:50:38;;;;;;;23.55;16.35;;;;;;;4.57;81.24;94809.75;5110679;28;20028;-76
2021/11/03 06:53:05;;;;;;;21.20;15.10;;;;;;;4.42;79.53;94781.47;5076853;28;20421;-76
2021/11/03 06:55:31;;;;;;;21.52;13.73;;;;;;;4.47;79.54;94802.59;5110205;28;20032;-76
2021/11/03 06:57:56;;;;;;;22.30;16.40;;;;;;;4.41;80.08;94815.00;5094558;28;20547;-76
2021/11/03 07:00:26;;;;;;;22.65;15.93;;;;;;;4.33;80.41;94807.72;5097660;28;20020;-76
2021/11/03 07:02:52;;;;;;;29.02;19.35;;;;;;;4.46;80.52;94823.28;5081010;28;20032;-76
2021/11/03 07:05:18;;;;;;;28.00;18.23;;;;;;;4.54;80.80;94826.25;5114215;28;20034;-76
2021/11/03 07:07:43;;;;;;;28.95;17.10;;;;;;;4.63;80.94;94832.56;5115625;27;20044;-76
2021/11/03 07:10:09;;;;;;;27.50;17.77;;;;;;;4.65;81.12;94807.56;5114472;28;20023;-76
2021/11/03 07:12:35;;;;;;;27.80;18.75;;;;;;;4.78;81.01;94821.34;5097485;28;20027;-75
2021/11/03 07:15:00;;;;;;;25.75;17.23;;;;;;;4.78;80.63;94812.81;5115310;28;20027;-76
2021/11/03 07:17:26;;;;;;;28.13;18.58;;;;;;;4.89;80.66;94821.53;5115265;28;20081;-76
2021/11/03 07:19:51;;;;;;;27.42;18.75;;;;;;;4.84;80.74;94802.97;5097204;28;20032;-76
2021/11/03 07:22:17;;;;;;;30.95;20.90;;;;;;;5.03;80.27;94825.03;5114231;28;20028;-76
2021/11/03 07:24:42;;;;;;;27.92;18.27;;;;;;;4.99;80.49;94816.69;5114079;28;20108;-75
2021/11/03 07:27:08;;;;;;;41.63;27.17;;;;;;;5.14;80.18;94832.94;5097077;28;20032;-76
2021/11/03 07:29:34;;;;;;;36.45;24.02;;;;;;;5.22;80.31;94841.00;5080258;28;20093;-76
2021/11/03 07:32:00;;;;;;;24.55;17.02;;;;;;;5.22;80.02;94833.28;5113942;28;20031;-76
2021/11/03 07:34:26;;;;;;;27.95;19.60;;;;;;;5.12;79.36;94829.63;5113672;28;20078;-76
2021/11/03 07:36:51;;;;;;;34.03;22.67;;;;;;;5.27;79.58;94864.75;5113785;28;20024;-76
2021/11/03 07:39:17;;;;;;;32.53;21.85;;;;;;;5.35;79.58;94866.88;5097076;28;20389;-76
2021/11/03 07:41:42;;;;;;;35.25;22.33;;;;;;;5.26;79.67;94836.50;5115029;28;20070;-76
2021/11/03 07:44:08;;;;;;;23.65;16.25;;;;;;;5.41;79.83;94847.63;5096412;28;20040;-76
2021/11/03 07:46:34;;;;;;;34.85;22.40;;;;;;;5.47;79.73;94858.38;5079800;28;20028;-76
2021/11/03 07:48:59;;;;;;;33.42;23.52;;;;;;;5.42;79.41;94849.25;5096883;28;20539;-76
2021/11/03 07:51:25;;;;;;;31.65;20.55;;;;;;;5.48;78.88;94869.50;5096671;28;20061;-76
2021/11/03 07:53:51;;;;;;;27.50;17.33;;;;;;;5.41;79.20;94868.22;5096383;28;20035;-76
2021/11/03 07:56:21;;;;;;;31.42;20.92;;;;;;;5.44;79.47;94871.44;5096535;28;20054;-76
2021/11/03 07:58:48;;;;;;;37.40;23.10;;;;;;;5.48;79.89;94865.16;5096567;28;20527;-76
2021/11/03 08:01:14;;;;;;;35.72;22.05;;;;;;;5.46;79.88;94856.72;5096416;28;20035;-76
2021/11/03 08:03:39;;;;;;;38.35;23.58;;;;;;;5.63;79.87;94873.72;5113303;28;20051;-76
2021/11/03 08:06:06;;;;;;;40.00;24.30;;;;;;;5.71;80.41;94845.72;5096253;28;20054;-76
2021/11/03 08:08:33;;;;;;;43.10;23.50;;;;;;;5.92;80.52;94847.84;5096611;28;20038;-76
2021/11/03 08:10:59;;;;;;;37.30;22.25;;;;;;;6.10;80.91;94851.84;5113550;28;20028;-76
2021/11/03 08:13:27;;;;;;;38.08;22.20;;;;;;;5.93;80.79;94818.53;5112984;28;20413;-76
2021/11/03 08:15:55;;;;;;;37.05;21.92;;;;;;;6.18;80.73;94841.00;5096609;28;20035;-76
2021/11/03 08:18:23;;;;;;;40.97;26.15;;;;;;;6.21;80.64;94828.75;5079450;28;20497;-76
2021/11/03 08:20:49;;;;;;;44.08;27.73;;;;;;;6.37;80.48;94835.50;5113154;28;20027;-76
2021/11/03 08:23:14;;;;;;;45.88;29.83;;;;;;;6.47;80.08;94837.34;5112697;28;20409;-76
2021/11/03 08:25:40;;;;;;;48.90;29.52;;;;;;;6.52;80.20;94823.31;5096050;28;20032;-76
2021/11/03 08:28:05;;;;;;;50.65;31.00;;;;;;;6.55;80.14;94818.78;5095973;28;20034;-76
2021/11/03 08:30:31;;;;;;;54.75;32.17;;;;;;;6.60;79.81;94816.72;5079141;28;20032;-76
2021/11/03 08:33:01;;;;;;;50.15;29.95;;;;;;;6.64;80.02;94817.34;5112517;28;20557;-77
2021/11/03 08:35:27;;;;;;;47.88;28.75;;;;;;;6.65;79.37;94812.06;5096063;28;20047;-76
2021/11/03 08:37:54;;;;;;;43.33;25.20;;;;;;;6.80;79.49;94824.88;5095738;28;20074;-76
2021/11/03 08:40:21;;;;;;;51.78;32.90;;;;;;;6.68;79.40;94806.69;5112812;28;20083;-76
2021/11/03 08:42:46;;;;;;;44.97;26.33;;;;;;;6.86;79.38;94834.81;5095546;28;20455;-76
2021/11/03 08:45:12;;;;;;;38.95;25.02;;;;;;;6.82;79.05;94831.56;5113563;28;20023;-76
2021/11/03 08:47:38;;;;;;;41.15;24.98;;;;;;;6.90;78.82;94834.47;5095605;28;20028;-76
2021/11/03 08:50:04;;;;;;;46.35;29.05;;;;;;;6.85;78.39;94828.81;5095618;28;20027;-76
2021/11/03 08:52:30;;;;;;;57.10;31.52;;;;;;;6.80;78.77;94828.28;5112070;28;20055;-76
2021/11/03 08:54:57;;;;;;;45.80;27.52;;;;;;;6.76;79.07;94813.09;5112222;28;20031;-76
2021/11/03 08:57:23;;;;;;;56.13;33.13;;;;;;;6.86;79.38;94827.06;5112268;28;20034;-76
2021/11/03 08:59:48;;;;;;;47.20;29.20;;;;;;;6.97;79.25;94827.16;5114244;27;20103;-76
2021/11/03 09:02:14;;;;;;;40.78;25.98;;;;;;;6.99;79.24;94825.25;5095041;28;20409;-76
2021/11/03 09:04:39;;;;;;;46.25;27.80;;;;;;;7.08;79.05;94829.81;5095307;28;20109;-76
2021/11/03 09:07:10;;;;;;;49.33;28.95;;;;;;;7.13;79.08;94839.81;5095035;28;20022;-76
2021/11/03 09:09:36;;;;;;;39.33;23.38;;;;;;;7.19;78.97;94835.97;5096325;28;20045;-76
2021/11/03 09:12:03;;;;;;;46.25;26.80;;;;;;;7.21;79.15;94834.94;5113259;28;20027;-76
2021/11/03 09:14:28;;;;;;;43.45;23.88;;;;;;;7.33;79.13;94838.47;5095060;28;20043;-76
2021/11/03 09:16:53;;;;;;;46.97;26.98;;;;;;;7.38;78.84;94831.19;5077865;28;20037;-76
2021/11/03 09:19:19;;;;;;;37.97;23.10;;;;;;;7.47;79.16;94833.16;5113672;28;20109;-76
2021/11/03 09:21:44;;;;;;;44.88;26.23;;;;;;;7.50;79.14;94817.44;5094497;28;20043;-76
2021/11/03 09:24:12;;;;;;;45.28;26.73;;;;;;;7.62;77.35;94823.47;5094740;28;20289;-76
2021/11/03 09:26:37;;;;;;;44.92;27.38;;;;;;;7.47;77.01;94815.06;5111722;28;20081;-76
2021/11/03 09:29:03;;;;;;;46.42;27.00;;;;;;;7.42;77.78;94808.56;5111906;28;20031;-76
2021/11/03 09:31:28;;;;;;;48.80;26.13;;;;;;;7.52;78.20;94814.72;5094449;28;20451;-76
2021/11/03 09:33:54;;;;;;;47.83;27.90;;;;;;;7.63;78.60;94819.94;5111784;28;20039;-76
2021/11/03 09:36:21;;;;;;;50.75;30.88;;;;;;;7.73;78.61;94820.13;5094464;28;20047;-76
2021/11/03 09:38:47;;;;;;;45.70;25.55;;;;;;;7.73;78.55;94810.59;5094813;28;20501;-76
2021/11/03 09:41:26;;;;;;;45.70;26.13;;;;;;;7.87;78.42;94808.81;5077331;28;20417;-76
2021/11/03 09:43:59;;;;;;;54.67;30.60;;;;;;;7.92;78.10;94807.53;5111248;28;20043;-76
2021/11/03 09:46:29;;;;;;;46.53;26.17;;;;;;;7.96;77.99;94803.78;5094340;28;20024;-76
2021/11/03 09:49:09;;;;;;;53.67;30.50;;;;;;;8.01;77.57;94806.84;5111494;28;20036;-76
2021/11/03 09:51:35;;;;;;;52.35;29.67;;;;;;;8.03;77.49;94799.00;5111427;28;20405;-76
2021/11/03 09:54:01;;;;;;;45.30;25.35;;;;;;;8.07;77.68;94793.47;5077435;28;20051;-76
2021/11/03 09:56:52;;;;;;;45.03;26.38;;;;;;;8.15;77.81;94787.72;5110809;28;20478;-76
2021/11/03 09:59:30;;;;;;;42.90;25.15;;;;;;;8.23;78.12;94784.59;5095242;28;20550;-76
2021/11/03 10:02:22;;;;;;;52.22;28.60;;;;;;;8.30;77.72;94788.34;5112138;28;20020;-76
2021/11/03 10:04:58;;;;;;;40.28;23.40;;;;;;;8.41;77.92;94782.41;5090387;28;20043;-76
2021/11/03 10:07:47;;;;;;;70.07;35.58;;;;;;;8.45;76.15;94771.72;5094717;28;20059;-76
2021/11/03 10:10:19;;;;;;;61.75;34.20;;;;;;;8.55;77.65;94760.66;5110796;28;20118;-76
2021/11/03 10:12:44;;;;;;;57.60;31.90;;;;;;;8.60;76.64;94758.56;5110770;28;20570;-76
2021/11/03 10:15:10;;;;;;;54.03;30.55;;;;;;;8.63;77.08;94747.97;5110973;28;20015;-76
2021/11/03 10:17:35;;;;;;;54.97;31.52;;;;;;;8.69;77.48;94752.66;5110814;28;20042;-76
2021/11/03 10:20:05;;;;;;;45.15;27.70;;;;;;;8.77;75.81;94750.31;5093240;28;20032;-76
2021/11/03 10:22:38;;;;;;;51.88;27.50;;;;;;;8.78;76.76;94749.41;5093806;28;20024;-76
2021/11/03 10:25:20;;;;;;;43.90;28.50;;;;;;;8.81;77.24;94743.97;5110218;28;20024;-76
2021/11/03 10:27:58;;;;;;;40.25;24.70;;;;;;;9.00;77.25;94748.56;5093363;28;20035;-76
2021/11/03 10:30:35;;;;;;;51.55;30.35;;;;;;;9.10;77.20;94754.66;5093393;28;20416;-76
2021/11/03 10:33:09;;;;;;;57.10;33.47;;;;;;;9.25;77.33;94752.66;5077130;28;20055;-76
2021/11/03 10:35:40;;;;;;;59.60;34.92;;;;;;;9.31;77.23;94734.03;5093485;28;20047;-76
2021/11/03 10:38:08;;;;;;;52.40;32.35;;;;;;;9.49;76.91;94743.88;5076414;28;20042;-76
2021/11/03 10:40:57;;;;;;;50.53;31.17;;;;;;;9.69;77.16;94735.31;5111366;28;20104;-76
2021/11/03 10:43:29;;;;;;;58.85;35.50;;;;;;;9.82;76.76;94735.16;5110082;28;20034;-76
2021/11/03 10:46:03;;;;;;;63.00;37.45;;;;;;;9.88;76.61;94723.47;5110322;28;20052;-76
2021/11/03 10:48:29;;;;;;;61.08;38.15;;;;;;;9.98;75.69;94719.19;5093727;28;20047;-76
2021/11/03 10:50:54;;;;;;;54.78;33.53;;;;;;;10.11;75.92;94730.19;5093365;28;20074;-76
2021/11/03 10:53:33;;;;;;;52.65;31.40;;;;;;;10.15;75.84;94722.97;5111469;28;20405;-76
2021/11/03 10:56:02;;;;;;;49.47;31.88;;;;;;;10.19;75.38;94729.56;5093756;28;20485;-76
2021/11/03 10:58:50;;;;;;;46.08;28.48;;;;;;;10.29;75.13;94731.28;5109944;28;20166;-76
2021/11/03 11:01:47;;;;;;;52.50;34.22;;;;;;;10.28;74.50;94718.47;5111002;28;20028;-76
2021/11/03 11:04:13;;;;;;;47.95;29.73;;;;;;;10.29;73.50;94730.47;5092967;28;20071;-76
2021/11/03 11:06:48;;;;;;;46.17;30.20;;;;;;;10.27;73.57;94735.78;5109652;28;20059;-76
2021/11/03 11:09:26;;;;;;;46.13;29.05;;;;;;;10.30;73.89;94739.91;5092871;28;20093;-76
2021/11/03 11:11:55;;;;;;;55.00;33.22;;;;;;;10.36;73.95;94738.56;5109692;28;20050;-76
2021/11/03 11:14:22;;;;;;;53.35;33.30;;;;;;;10.40;74.11;94727.81;5093013;28;20036;-76
2021/11/03 11:17:16;;;;;;;49.38;31.23;;;;;;;10.47;74.20;94728.13;5092958;28;20486;-77
2021/11/03 11:19:59;;;;;;;44.97;29.67;;;;;;;10.65;74.50;94746.53;5093010;28;20059;-76
2021/11/03 11:22:42;;;;;;;48.45;32.45;;;;;;;10.76;74.40;94746.47;5111205;28;20106;-77
2021/11/03 11:25:07;;;;;;;49.03;31.40;;;;;;;10.86;74.51;94729.13;5109724;28;20036;-77
2021/11/03 11:27:38;;;;;;;59.95;38.97;;;;;;;10.94;74.33;94710.28;5110875;28;20035;-77